sensor_id;sensor_type;location;lat;lon;timestamp;P1;durP1;ratioP1;P2;durP2;ratioP2
51224;SDS011;37298;42.688;23.312;2024-03-02T00:00:11;29.52;;;18.73;;
51224;SDS011;37298;42.688;23.312;2024-03-02T00:02:39;35.00;;;18.75;;
51224;SDS011;37298;42.688;23.312;2024-03-02T00:05:07;34.53;;;17.42;;
51224;SDS011;37298;42.688;23.312;2024-03-02T00:07:33;27.50;;;17.08;;
51224;SDS011;37298;42.688;23.312;2024-03-02T00:10:00;33.30;;;17.75;;
51224;SDS011;37298;42.688;23.312;2024-03-02T00:12:28;28.38;;;17.10;;
51224;SDS011;37298;42.688;23.312;2024-03-02T00:14:54;38.58;;;18.65;;
51224;SDS011;37298;42.688;23.312;2024-03-02T00:17:24;33.08;;;17.90;;
51224;SDS011;37298;42.688;23.312;2024-03-02T00:19:50;31.10;;;18.45;;
51224;SDS011;37298;42.688;23.312;2024-03-02T00:22:18;26.55;;;16.08;;
51224;SDS011;37298;42.688;23.312;2024-03-02T00:24:44;32.28;;;18.15;;
51224;SDS011;37298;42.688;23.312;2024-03-02T00:27:12;30.85;;;17.83;;
51224;SDS011;37298;42.688;23.312;2024-03-02T00:29:40;31.38;;;17.50;;
51224;SDS011;37298;42.688;23.312;2024-03-02T00:32:07;31.38;;;16.70;;
51224;SDS011;37298;42.688;23.312;2024-03-02T00:34:38;34.70;;;18.23;;
51224;SDS011;37298;42.688;23.312;2024-03-02T00:37:05;27.67;;;16.65;;
51224;SDS011;37298;42.688;23.312;2024-03-02T00:39:31;24.83;;;14.52;;
51224;SDS011;37298;42.688;23.312;2024-03-02T00:41:58;32.92;;;17.77;;
51224;SDS011;37298;42.688;23.312;2024-03-02T00:44:25;26.23;;;16.63;;
51224;SDS011;37298;42.688;23.312;2024-03-02T00:46:52;26.67;;;16.42;;
51224;SDS011;37298;42.688;23.312;2024-03-02T00:49:20;29.15;;;15.05;;
51224;SDS011;37298;42.688;23.312;2024-03-02T00:51:47;27.98;;;17.15;;
51224;SDS011;37298;42.688;23.312;2024-03-02T00:54:14;27.08;;;16.00;;
51224;SDS011;37298;42.688;23.312;2024-03-02T00:56:40;27.55;;;16.80;;
51224;SDS011;37298;42.688;23.312;2024-03-02T00:59:07;26.23;;;15.25;;
51224;SDS011;37298;42.688;23.312;2024-03-02T01:01:34;25.83;;;15.68;;
51224;SDS011;37298;42.688;23.312;2024-03-02T01:04:01;26.00;;;15.27;;
51224;SDS011;37298;42.688;23.312;2024-03-02T01:06:28;31.85;;;15.77;;
51224;SDS011;37298;42.688;23.312;2024-03-02T01:08:54;27.45;;;15.25;;
51224;SDS011;37298;42.688;23.312;2024-03-02T01:11:20;23.73;;;13.25;;
51224;SDS011;37298;42.688;23.312;2024-03-02T01:13:47;27.20;;;15.48;;
51224;SDS011;37298;42.688;23.312;2024-03-02T01:16:14;26.10;;;14.50;;
51224;SDS011;37298;42.688;23.312;2024-03-02T01:18:41;23.65;;;14.05;;
51224;SDS011;37298;42.688;23.312;2024-03-02T01:21:09;24.75;;;14.40;;
51224;SDS011;37298;42.688;23.312;2024-03-02T01:23:35;29.48;;;15.57;;
51224;SDS011;37298;42.688;23.312;2024-03-02T01:26:01;24.38;;;14.95;;
51224;SDS011;37298;42.688;23.312;2024-03-02T01:28:28;22.27;;;13.90;;
51224;SDS011;37298;42.688;23.312;2024-03-02T01:30:54;24.90;;;14.10;;
51224;SDS011;37298;42.688;23.312;2024-03-02T01:33:21;25.20;;;14.23;;
51224;SDS011;37298;42.688;23.312;2024-03-02T01:35:47;21.83;;;13.73;;
51224;SDS011;37298;42.688;23.312;2024-03-02T01:38:14;23.73;;;14.70;;
51224;SDS011;37298;42.688;23.312;2024-03-02T01:40:41;24.05;;;14.88;;
51224;SDS011;37298;42.688;23.312;2024-03-02T01:43:10;30.95;;;15.13;;
51224;SDS011;37298;42.688;23.312;2024-03-02T01:45:36;27.85;;;15.93;;
51224;SDS011;37298;42.688;23.312;2024-03-02T01:48:03;29.45;;;15.68;;
51224;SDS011;37298;42.688;23.312;2024-03-02T01:50:31;26.27;;;14.63;;
51224;SDS011;37298;42.688;23.312;2024-03-02T01:52:58;24.42;;;14.52;;
51224;SDS011;37298;42.688;23.312;2024-03-02T01:55:25;25.63;;;13.93;;
51224;SDS011;37298;42.688;23.312;2024-03-02T01:57:52;26.77;;;14.97;;
51224;SDS011;37298;42.688;23.312;2024-03-02T02:00:19;24.42;;;14.65;;
51224;SDS011;37298;42.688;23.312;2024-03-02T02:02:46;25.90;;;15.75;;
51224;SDS011;37298;42.688;23.312;2024-03-02T02:05:12;23.98;;;15.30;;
51224;SDS011;37298;42.688;23.312;2024-03-02T02:07:40;28.60;;;16.23;;
51224;SDS011;37298;42.688;23.312;2024-03-02T02:10:06;30.73;;;15.65;;
51224;SDS011;37298;42.688;23.312;2024-03-02T02:12:33;28.23;;;15.10;;
51224;SDS011;37298;42.688;23.312;2024-03-02T02:15:00;26.70;;;15.43;;
51224;SDS011;37298;42.688;23.312;2024-03-02T02:17:29;30.88;;;18.27;;
51224;SDS011;37298;42.688;23.312;2024-03-02T02:19:56;32.40;;;17.67;;
51224;SDS011;37298;42.688;23.312;2024-03-02T02:22:23;32.05;;;18.40;;
51224;SDS011;37298;42.688;23.312;2024-03-02T02:24:50;32.42;;;18.65;;
51224;SDS011;37298;42.688;23.312;2024-03-02T02:27:16;36.65;;;19.65;;
51224;SDS011;37298;42.688;23.312;2024-03-02T02:29:43;33.88;;;19.08;;
51224;SDS011;37298;42.688;23.312;2024-03-02T02:32:09;32.15;;;18.45;;
51224;SDS011;37298;42.688;23.312;2024-03-02T02:34:36;32.38;;;17.70;;
51224;SDS011;37298;42.688;23.312;2024-03-02T02:37:02;34.10;;;19.98;;
51224;SDS011;37298;42.688;23.312;2024-03-02T02:39:29;34.50;;;19.98;;
51224;SDS011;37298;42.688;23.312;2024-03-02T02:41:56;37.47;;;20.13;;
51224;SDS011;37298;42.688;23.312;2024-03-02T02:44:22;34.70;;;19.33;;
51224;SDS011;37298;42.688;23.312;2024-03-02T02:46:49;33.17;;;19.27;;
51224;SDS011;37298;42.688;23.312;2024-03-02T02:49:15;35.50;;;20.70;;
51224;SDS011;37298;42.688;23.312;2024-03-02T02:51:42;34.20;;;20.67;;
51224;SDS011;37298;42.688;23.312;2024-03-02T02:54:08;33.42;;;18.70;;
51224;SDS011;37298;42.688;23.312;2024-03-02T02:56:36;35.22;;;20.67;;
51224;SDS011;37298;42.688;23.312;2024-03-02T02:59:03;33.70;;;18.92;;
51224;SDS011;37298;42.688;23.312;2024-03-02T03:01:29;41.75;;;19.75;;
51224;SDS011;37298;42.688;23.312;2024-03-02T03:03:55;33.90;;;20.35;;
51224;SDS011;37298;42.688;23.312;2024-03-02T03:06:22;31.40;;;19.30;;
51224;SDS011;37298;42.688;23.312;2024-03-02T03:08:48;36.13;;;19.42;;
51224;SDS011;37298;42.688;23.312;2024-03-02T03:11:14;33.65;;;18.63;;
51224;SDS011;37298;42.688;23.312;2024-03-02T03:13:41;29.80;;;18.83;;
51224;SDS011;37298;42.688;23.312;2024-03-02T03:16:08;35.78;;;20.70;;
51224;SDS011;37298;42.688;23.312;2024-03-02T03:18:34;35.83;;;21.45;;
51224;SDS011;37298;42.688;23.312;2024-03-02T03:21:00;37.33;;;18.95;;
51224;SDS011;37298;42.688;23.312;2024-03-02T03:23:28;35.42;;;20.38;;
51224;SDS011;37298;42.688;23.312;2024-03-02T03:25:54;34.97;;;21.58;;
51224;SDS011;37298;42.688;23.312;2024-03-02T03:28:21;34.50;;;20.67;;
51224;SDS011;37298;42.688;23.312;2024-03-02T03:30:48;42.22;;;22.83;;
51224;SDS011;37298;42.688;23.312;2024-03-02T03:33:15;38.17;;;21.17;;
51224;SDS011;37298;42.688;23.312;2024-03-02T03:35:41;35.85;;;20.42;;
51224;SDS011;37298;42.688;23.312;2024-03-02T03:38:07;35.10;;;21.50;;
51224;SDS011;37298;42.688;23.312;2024-03-02T03:40:34;35.90;;;20.33;;
51224;SDS011;37298;42.688;23.312;2024-03-02T03:43:00;34.58;;;20.25;;
51224;SDS011;37298;42.688;23.312;2024-03-02T03:45:26;41.30;;;21.40;;
51224;SDS011;37298;42.688;23.312;2024-03-02T03:47:53;36.90;;;20.40;;
51224;SDS011;37298;42.688;23.312;2024-03-02T03:50:20;40.72;;;23.60;;
51224;SDS011;37298;42.688;23.312;2024-03-02T03:52:46;38.90;;;23.05;;
51224;SDS011;37298;42.688;23.312;2024-03-02T03:55:13;43.72;;;24.98;;
51224;SDS011;37298;42.688;23.312;2024-03-02T03:57:39;43.40;;;23.42;;
51224;SDS011;37298;42.688;23.312;2024-03-02T04:00:07;39.13;;;23.48;;
51224;SDS011;37298;42.688;23.312;2024-03-02T04:02:38;39.90;;;23.55;;
51224;SDS011;37298;42.688;23.312;2024-03-02T04:05:06;40.53;;;22.95;;
51224;SDS011;37298;42.688;23.312;2024-03-02T04:07:36;39.00;;;22.92;;
51224;SDS011;37298;42.688;23.312;2024-03-02T04:10:08;39.95;;;24.02;;
51224;SDS011;37298;42.688;23.312;2024-03-02T04:12:35;46.72;;;25.17;;
51224;SDS011;37298;42.688;23.312;2024-03-02T04:15:02;45.30;;;23.88;;
51224;SDS011;37298;42.688;23.312;2024-03-02T04:17:31;45.55;;;25.85;;
51224;SDS011;37298;42.688;23.312;2024-03-02T04:19:57;50.10;;;26.20;;
51224;SDS011;37298;42.688;23.312;2024-03-02T04:22:24;50.88;;;25.50;;
51224;SDS011;37298;42.688;23.312;2024-03-02T04:24:50;53.75;;;26.13;;
51224;SDS011;37298;42.688;23.312;2024-03-02T04:27:17;43.35;;;24.67;;
51224;SDS011;37298;42.688;23.312;2024-03-02T04:29:43;44.83;;;24.95;;
51224;SDS011;37298;42.688;23.312;2024-03-02T04:32:10;46.70;;;26.45;;
51224;SDS011;37298;42.688;23.312;2024-03-02T04:34:36;40.28;;;23.33;;
51224;SDS011;37298;42.688;23.312;2024-03-02T04:37:02;46.67;;;25.50;;
51224;SDS011;37298;42.688;23.312;2024-03-02T04:39:31;43.42;;;25.73;;
51224;SDS011;37298;42.688;23.312;2024-03-02T04:41:57;42.65;;;24.98;;
51224;SDS011;37298;42.688;23.312;2024-03-02T04:44:24;41.90;;;25.63;;
51224;SDS011;37298;42.688;23.312;2024-03-02T04:46:50;46.38;;;25.88;;
51224;SDS011;37298;42.688;23.312;2024-03-02T04:49:17;41.67;;;24.98;;
51224;SDS011;37298;42.688;23.312;2024-03-02T04:51:43;43.70;;;26.17;;
51224;SDS011;37298;42.688;23.312;2024-03-02T04:54:10;45.95;;;24.77;;
51224;SDS011;37298;42.688;23.312;2024-03-02T04:56:37;45.20;;;26.45;;
51224;SDS011;37298;42.688;23.312;2024-03-02T04:59:10;46.55;;;26.70;;
51224;SDS011;37298;42.688;23.312;2024-03-02T05:01:36;47.42;;;27.08;;
51224;SDS011;37298;42.688;23.312;2024-03-02T05:04:03;51.80;;;27.63;;
51224;SDS011;37298;42.688;23.312;2024-03-02T05:06:29;48.17;;;26.95;;
51224;SDS011;37298;42.688;23.312;2024-03-02T05:08:56;52.45;;;28.60;;
51224;SDS011;37298;42.688;23.312;2024-03-02T05:11:23;58.67;;;32.20;;
51224;SDS011;37298;42.688;23.312;2024-03-02T05:14:09;61.58;;;34.53;;
51224;SDS011;37298;42.688;23.312;2024-03-02T05:16:35;67.05;;;33.45;;
51224;SDS011;37298;42.688;23.312;2024-03-02T05:19:04;54.78;;;31.38;;
51224;SDS011;37298;42.688;23.312;2024-03-02T05:21:32;47.85;;;26.40;;
51224;SDS011;37298;42.688;23.312;2024-03-02T05:23:59;52.50;;;29.35;;
51224;SDS011;37298;42.688;23.312;2024-03-02T05:26:25;51.80;;;29.52;;
51224;SDS011;37298;42.688;23.312;2024-03-02T05:28:52;53.65;;;29.02;;
51224;SDS011;37298;42.688;23.312;2024-03-02T05:31:19;58.15;;;30.40;;
51224;SDS011;37298;42.688;23.312;2024-03-02T05:33:46;53.78;;;30.23;;
51224;SDS011;37298;42.688;23.312;2024-03-02T05:36:12;55.97;;;31.08;;
51224;SDS011;37298;42.688;23.312;2024-03-02T05:38:39;63.65;;;33.53;;
51224;SDS011;37298;42.688;23.312;2024-03-02T05:41:05;54.78;;;31.58;;
51224;SDS011;37298;42.688;23.312;2024-03-02T05:43:32;56.72;;;30.95;;
51224;SDS011;37298;42.688;23.312;2024-03-02T05:45:58;53.65;;;30.70;;
51224;SDS011;37298;42.688;23.312;2024-03-02T05:48:26;55.00;;;31.88;;
51224;SDS011;37298;42.688;23.312;2024-03-02T05:50:52;55.90;;;31.00;;
51224;SDS011;37298;42.688;23.312;2024-03-02T05:53:18;51.78;;;31.17;;
51224;SDS011;37298;42.688;23.312;2024-03-02T05:55:44;59.70;;;32.83;;
51224;SDS011;37298;42.688;23.312;2024-03-02T05:58:11;60.97;;;31.38;;
51224;SDS011;37298;42.688;23.312;2024-03-02T06:00:51;56.20;;;30.70;;
51224;SDS011;37298;42.688;23.312;2024-03-02T06:03:17;57.75;;;31.33;;
51224;SDS011;37298;42.688;23.312;2024-03-02T06:05:44;54.65;;;31.25;;
51224;SDS011;37298;42.688;23.312;2024-03-02T06:08:11;53.00;;;31.30;;
51224;SDS011;37298;42.688;23.312;2024-03-02T06:10:37;58.60;;;31.23;;
51224;SDS011;37298;42.688;23.312;2024-03-02T06:13:03;56.42;;;30.58;;
51224;SDS011;37298;42.688;23.312;2024-03-02T06:15:30;50.47;;;29.20;;
51224;SDS011;37298;42.688;23.312;2024-03-02T06:17:56;49.40;;;26.50;;
51224;SDS011;37298;42.688;23.312;2024-03-02T06:20:22;46.33;;;26.75;;
51224;SDS011;37298;42.688;23.312;2024-03-02T06:22:50;43.80;;;25.08;;
51224;SDS011;37298;42.688;23.312;2024-03-02T06:25:16;45.17;;;24.65;;
51224;SDS011;37298;42.688;23.312;2024-03-02T06:27:43;43.17;;;23.75;;
51224;SDS011;37298;42.688;23.312;2024-03-02T06:30:09;40.53;;;22.52;;
51224;SDS011;37298;42.688;23.312;2024-03-02T06:32:36;38.13;;;22.45;;
51224;SDS011;37298;42.688;23.312;2024-03-02T06:35:02;42.15;;;23.40;;
51224;SDS011;37298;42.688;23.312;2024-03-02T06:37:30;45.33;;;23.35;;
51224;SDS011;37298;42.688;23.312;2024-03-02T06:39:57;39.17;;;22.02;;
51224;SDS011;37298;42.688;23.312;2024-03-02T06:42:24;44.72;;;24.40;;
51224;SDS011;37298;42.688;23.312;2024-03-02T06:44:50;43.40;;;22.85;;
51224;SDS011;37298;42.688;23.312;2024-03-02T06:47:16;42.28;;;24.30;;
51224;SDS011;37298;42.688;23.312;2024-03-02T06:49:43;43.67;;;23.20;;
51224;SDS011;37298;42.688;23.312;2024-03-02T06:52:09;43.10;;;23.63;;
51224;SDS011;37298;42.688;23.312;2024-03-02T06:54:36;40.53;;;24.10;;
51224;SDS011;37298;42.688;23.312;2024-03-02T06:57:04;45.85;;;23.88;;
51224;SDS011;37298;42.688;23.312;2024-03-02T06:59:30;44.28;;;23.05;;
51224;SDS011;37298;42.688;23.312;2024-03-02T07:01:56;44.95;;;23.13;;
51224;SDS011;37298;42.688;23.312;2024-03-02T07:04:22;42.25;;;22.25;;
51224;SDS011;37298;42.688;23.312;2024-03-02T07:06:49;44.55;;;22.20;;
51224;SDS011;37298;42.688;23.312;2024-03-02T07:09:16;49.50;;;23.85;;
51224;SDS011;37298;42.688;23.312;2024-03-02T07:11:43;44.97;;;23.10;;
51224;SDS011;37298;42.688;23.312;2024-03-02T07:14:10;45.65;;;22.77;;
51224;SDS011;37298;42.688;23.312;2024-03-02T07:16:37;44.38;;;22.55;;
51224;SDS011;37298;42.688;23.312;2024-03-02T07:19:05;40.88;;;22.00;;
51224;SDS011;37298;42.688;23.312;2024-03-02T07:21:32;44.10;;;22.48;;
51224;SDS011;37298;42.688;23.312;2024-03-02T07:23:58;42.72;;;22.85;;
51224;SDS011;37298;42.688;23.312;2024-03-02T07:26:25;38.13;;;21.42;;
51224;SDS011;37298;42.688;23.312;2024-03-02T07:28:52;44.08;;;22.67;;
51224;SDS011;37298;42.688;23.312;2024-03-02T07:31:19;42.35;;;21.73;;
51224;SDS011;37298;42.688;23.312;2024-03-02T07:33:46;40.05;;;21.10;;
51224;SDS011;37298;42.688;23.312;2024-03-02T07:36:12;45.10;;;22.80;;
51224;SDS011;37298;42.688;23.312;2024-03-02T07:38:39;43.83;;;24.10;;
51224;SDS011;37298;42.688;23.312;2024-03-02T07:41:06;40.58;;;22.58;;
51224;SDS011;37298;42.688;23.312;2024-03-02T07:43:33;42.85;;;23.48;;
51224;SDS011;37298;42.688;23.312;2024-03-02T07:46:00;41.47;;;23.02;;
51224;SDS011;37298;42.688;23.312;2024-03-02T07:48:27;40.38;;;22.55;;
51224;SDS011;37298;42.688;23.312;2024-03-02T07:50:53;48.85;;;23.88;;
51224;SDS011;37298;42.688;23.312;2024-03-02T07:53:20;39.05;;;21.73;;
51224;SDS011;37298;42.688;23.312;2024-03-02T07:55:46;43.88;;;23.48;;
51224;SDS011;37298;42.688;23.312;2024-03-02T07:58:12;43.75;;;23.20;;
51224;SDS011;37298;42.688;23.312;2024-03-02T08:00:38;48.97;;;23.27;;
51224;SDS011;37298;42.688;23.312;2024-03-02T08:03:05;43.38;;;23.55;;
51224;SDS011;37298;42.688;23.312;2024-03-02T08:05:32;41.95;;;23.10;;
51224;SDS011;37298;42.688;23.312;2024-03-02T08:07:59;47.78;;;23.52;;
51224;SDS011;37298;42.688;23.312;2024-03-02T08:10:25;47.22;;;23.83;;
51224;SDS011;37298;42.688;23.312;2024-03-02T08:12:52;41.75;;;22.73;;
51224;SDS011;37298;42.688;23.312;2024-03-02T08:15:18;42.75;;;23.85;;
51224;SDS011;37298;42.688;23.312;2024-03-02T08:17:44;42.60;;;21.85;;
51224;SDS011;37298;42.688;23.312;2024-03-02T08:20:14;43.33;;;23.05;;
51224;SDS011;37298;42.688;23.312;2024-03-02T08:22:41;43.47;;;22.50;;
51224;SDS011;37298;42.688;23.312;2024-03-02T08:25:08;36.72;;;20.30;;
51224;SDS011;37298;42.688;23.312;2024-03-02T08:27:35;45.40;;;22.98;;
51224;SDS011;37298;42.688;23.312;2024-03-02T08:30:01;39.13;;;20.88;;
51224;SDS011;37298;42.688;23.312;2024-03-02T08:32:29;36.22;;;19.02;;
51224;SDS011;37298;42.688;23.312;2024-03-02T08:34:55;36.33;;;21.55;;
51224;SDS011;37298;42.688;23.312;2024-03-02T08:37:22;37.05;;;20.55;;
51224;SDS011;37298;42.688;23.312;2024-03-02T08:39:50;43.00;;;20.27;;
51224;SDS011;37298;42.688;23.312;2024-03-02T08:42:17;35.13;;;19.92;;
51224;SDS011;37298;42.688;23.312;2024-03-02T08:44:43;38.58;;;20.45;;
51224;SDS011;37298;42.688;23.312;2024-03-02T08:47:10;43.85;;;21.20;;
51224;SDS011;37298;42.688;23.312;2024-03-02T08:49:37;47.40;;;22.15;;
51224;SDS011;37298;42.688;23.312;2024-03-02T08:52:03;38.13;;;20.27;;
51224;SDS011;37298;42.688;23.312;2024-03-02T08:54:29;38.58;;;19.13;;
51224;SDS011;37298;42.688;23.312;2024-03-02T08:56:57;32.58;;;18.80;;
51224;SDS011;37298;42.688;23.312;2024-03-02T08:59:24;39.58;;;19.00;;
51224;SDS011;37298;42.688;23.312;2024-03-02T09:01:53;33.88;;;19.15;;
51224;SDS011;37298;42.688;23.312;2024-03-02T09:04:19;34.05;;;19.42;;
51224;SDS011;37298;42.688;23.312;2024-03-02T09:06:46;33.70;;;19.20;;
51224;SDS011;37298;42.688;23.312;2024-03-02T09:09:12;32.70;;;19.45;;
51224;SDS011;37298;42.688;23.312;2024-03-02T09:11:38;32.13;;;20.02;;
51224;SDS011;37298;42.688;23.312;2024-03-02T09:14:05;33.47;;;20.77;;
51224;SDS011;37298;42.688;23.312;2024-03-02T09:16:32;32.22;;;19.25;;
51224;SDS011;37298;42.688;23.312;2024-03-02T09:18:58;34.03;;;20.42;;
51224;SDS011;37298;42.688;23.312;2024-03-02T09:21:25;35.65;;;19.92;;
51224;SDS011;37298;42.688;23.312;2024-03-02T09:23:51;35.75;;;20.35;;
51224;SDS011;37298;42.688;23.312;2024-03-02T09:26:19;38.20;;;22.40;;
51224;SDS011;37298;42.688;23.312;2024-03-02T09:28:46;35.92;;;21.23;;
51224;SDS011;37298;42.688;23.312;2024-03-02T09:31:13;30.98;;;20.42;;
51224;SDS011;37298;42.688;23.312;2024-03-02T09:33:39;36.78;;;21.20;;
51224;SDS011;37298;42.688;23.312;2024-03-02T09:36:05;32.83;;;19.08;;
51224;SDS011;37298;42.688;23.312;2024-03-02T09:38:32;36.20;;;19.63;;
51224;SDS011;37298;42.688;23.312;2024-03-02T09:40:58;37.97;;;20.98;;
51224;SDS011;37298;42.688;23.312;2024-03-02T09:43:25;38.13;;;20.52;;
51224;SDS011;37298;42.688;23.312;2024-03-02T09:45:52;34.35;;;19.80;;
51224;SDS011;37298;42.688;23.312;2024-03-02T09:48:19;37.92;;;18.67;;
51224;SDS011;37298;42.688;23.312;2024-03-02T09:50:46;34.67;;;18.90;;
51224;SDS011;37298;42.688;23.312;2024-03-02T09:53:13;32.85;;;19.20;;
51224;SDS011;37298;42.688;23.312;2024-03-02T09:55:40;35.53;;;20.90;;
51224;SDS011;37298;42.688;23.312;2024-03-02T09:58:09;34.55;;;20.05;;
51224;SDS011;37298;42.688;23.312;2024-03-02T10:00:35;38.70;;;21.55;;
51224;SDS011;37298;42.688;23.312;2024-03-02T10:03:02;34.28;;;20.38;;
51224;SDS011;37298;42.688;23.312;2024-03-02T10:05:31;34.30;;;20.48;;
51224;SDS011;37298;42.688;23.312;2024-03-02T10:08:00;37.10;;;21.75;;
51224;SDS011;37298;42.688;23.312;2024-03-02T10:10:34;33.05;;;18.13;;
51224;SDS011;37298;42.688;23.312;2024-03-02T10:13:03;30.08;;;18.35;;
51224;SDS011;37298;42.688;23.312;2024-03-02T10:15:29;33.88;;;20.73;;
51224;SDS011;37298;42.688;23.312;2024-03-02T10:17:56;32.25;;;20.17;;
51224;SDS011;37298;42.688;23.312;2024-03-02T10:20:23;33.92;;;19.45;;
51224;SDS011;37298;42.688;23.312;2024-03-02T10:22:51;37.22;;;21.88;;
51224;SDS011;37298;42.688;23.312;2024-03-02T10:25:28;29.38;;;18.77;;
51224;SDS011;37298;42.688;23.312;2024-03-02T10:27:56;44.47;;;22.33;;
51224;SDS011;37298;42.688;23.312;2024-03-02T10:32:49;37.25;;;21.48;;
51224;SDS011;37298;42.688;23.312;2024-03-02T10:35:16;39.03;;;21.25;;
51224;SDS011;37298;42.688;23.312;2024-03-02T10:37:42;36.30;;;20.55;;
51224;SDS011;37298;42.688;23.312;2024-03-02T10:40:10;32.05;;;19.70;;
51224;SDS011;37298;42.688;23.312;2024-03-02T10:42:37;36.40;;;19.95;;
51224;SDS011;37298;42.688;23.312;2024-03-02T10:45:04;32.50;;;19.42;;
51224;SDS011;37298;42.688;23.312;2024-03-02T10:47:31;36.60;;;20.10;;
51224;SDS011;37298;42.688;23.312;2024-03-02T10:50:00;34.70;;;20.17;;
51224;SDS011;37298;42.688;23.312;2024-03-02T10:52:27;36.13;;;21.23;;
51224;SDS011;37298;42.688;23.312;2024-03-02T10:54:54;38.70;;;20.77;;
51224;SDS011;37298;42.688;23.312;2024-03-02T10:57:21;37.10;;;20.88;;
51224;SDS011;37298;42.688;23.312;2024-03-02T10:59:51;33.47;;;20.63;;
51224;SDS011;37298;42.688;23.312;2024-03-02T11:02:19;35.88;;;20.25;;
51224;SDS011;37298;42.688;23.312;2024-03-02T11:04:47;37.63;;;20.95;;
51224;SDS011;37298;42.688;23.312;2024-03-02T11:07:14;44.03;;;21.67;;
51224;SDS011;37298;42.688;23.312;2024-03-02T11:09:44;35.60;;;20.85;;
51224;SDS011;37298;42.688;23.312;2024-03-02T11:12:12;35.25;;;20.83;;
51224;SDS011;37298;42.688;23.312;2024-03-02T11:14:40;37.05;;;21.25;;
51224;SDS011;37298;42.688;23.312;2024-03-02T11:17:08;32.90;;;20.30;;
51224;SDS011;37298;42.688;23.312;2024-03-02T11:19:35;39.70;;;21.63;;
51224;SDS011;37298;42.688;23.312;2024-03-02T11:24:31;33.40;;;17.77;;
51224;SDS011;37298;42.688;23.312;2024-03-02T11:26:58;35.92;;;19.77;;
51224;SDS011;37298;42.688;23.312;2024-03-02T11:29:45;34.25;;;21.27;;
51224;SDS011;37298;42.688;23.312;2024-03-02T11:32:15;36.58;;;19.75;;
51224;SDS011;37298;42.688;23.312;2024-03-02T11:34:42;36.35;;;19.63;;
51224;SDS011;37298;42.688;23.312;2024-03-02T11:37:12;34.78;;;20.02;;
51224;SDS011;37298;42.688;23.312;2024-03-02T11:39:39;31.15;;;19.77;;
51224;SDS011;37298;42.688;23.312;2024-03-02T11:42:05;34.05;;;20.35;;
51224;SDS011;37298;42.688;23.312;2024-03-02T11:44:32;37.10;;;20.52;;
51224;SDS011;37298;42.688;23.312;2024-03-02T11:47:00;36.38;;;20.60;;
51224;SDS011;37298;42.688;23.312;2024-03-02T11:49:36;34.10;;;19.77;;
51224;SDS011;37298;42.688;23.312;2024-03-02T11:52:04;34.70;;;20.48;;
51224;SDS011;37298;42.688;23.312;2024-03-02T11:54:30;33.33;;;19.73;;
51224;SDS011;37298;42.688;23.312;2024-03-02T11:56:59;31.13;;;18.63;;
51224;SDS011;37298;42.688;23.312;2024-03-02T11:59:26;30.95;;;19.70;;
51224;SDS011;37298;42.688;23.312;2024-03-02T12:01:53;33.80;;;20.08;;
51224;SDS011;37298;42.688;23.312;2024-03-02T12:04:20;33.97;;;19.35;;
51224;SDS011;37298;42.688;23.312;2024-03-02T12:06:48;31.45;;;19.13;;
51224;SDS011;37298;42.688;23.312;2024-03-02T12:09:14;33.50;;;19.08;;
51224;SDS011;37298;42.688;23.312;2024-03-02T12:11:41;29.58;;;18.20;;
51224;SDS011;37298;42.688;23.312;2024-03-02T12:14:10;30.27;;;18.90;;
51224;SDS011;37298;42.688;23.312;2024-03-02T12:16:37;31.33;;;18.55;;
51224;SDS011;37298;42.688;23.312;2024-03-02T12:19:05;32.60;;;18.25;;
51224;SDS011;37298;42.688;23.312;2024-03-02T12:21:32;31.55;;;18.75;;
51224;SDS011;37298;42.688;23.312;2024-03-02T12:23:59;30.48;;;17.48;;
51224;SDS011;37298;42.688;23.312;2024-03-02T12:26:25;29.00;;;17.88;;
51224;SDS011;37298;42.688;23.312;2024-03-02T12:28:51;32.08;;;18.83;;
51224;SDS011;37298;42.688;23.312;2024-03-02T12:31:18;32.65;;;18.35;;
51224;SDS011;37298;42.688;23.312;2024-03-02T12:33:45;32.10;;;18.27;;
51224;SDS011;37298;42.688;23.312;2024-03-02T12:36:13;28.42;;;18.10;;
51224;SDS011;37298;42.688;23.312;2024-03-02T12:38:43;38.05;;;18.90;;
51224;SDS011;37298;42.688;23.312;2024-03-02T12:41:10;32.25;;;17.25;;
51224;SDS011;37298;42.688;23.312;2024-03-02T12:43:38;33.47;;;19.13;;
51224;SDS011;37298;42.688;23.312;2024-03-02T12:46:04;32.72;;;17.73;;
51224;SDS011;37298;42.688;23.312;2024-03-02T12:48:31;31.15;;;17.48;;
51224;SDS011;37298;42.688;23.312;2024-03-02T12:50:57;32.17;;;17.42;;
51224;SDS011;37298;42.688;23.312;2024-03-02T12:53:24;30.90;;;19.40;;
51224;SDS011;37298;42.688;23.312;2024-03-02T12:55:51;28.45;;;18.23;;
51224;SDS011;37298;42.688;23.312;2024-03-02T12:58:18;29.73;;;17.42;;
51224;SDS011;37298;42.688;23.312;2024-03-02T13:00:45;30.30;;;17.15;;
51224;SDS011;37298;42.688;23.312;2024-03-02T13:03:11;29.13;;;18.67;;
51224;SDS011;37298;42.688;23.312;2024-03-02T13:05:39;27.63;;;17.75;;
51224;SDS011;37298;42.688;23.312;2024-03-02T13:08:06;27.75;;;17.85;;
51224;SDS011;37298;42.688;23.312;2024-03-02T13:10:32;31.13;;;17.95;;
51224;SDS011;37298;42.688;23.312;2024-03-02T13:13:00;31.13;;;18.85;;
51224;SDS011;37298;42.688;23.312;2024-03-02T13:15:26;28.63;;;16.98;;
51224;SDS011;37298;42.688;23.312;2024-03-02T13:17:53;28.52;;;17.38;;
51224;SDS011;37298;42.688;23.312;2024-03-02T13:20:22;30.15;;;17.92;;
51224;SDS011;37298;42.688;23.312;2024-03-02T13:22:49;30.55;;;17.33;;
51224;SDS011;37298;42.688;23.312;2024-03-02T13:25:16;38.45;;;21.02;;
51224;SDS011;37298;42.688;23.312;2024-03-02T13:27:42;31.42;;;18.42;;
51224;SDS011;37298;42.688;23.312;2024-03-02T13:30:10;30.38;;;18.70;;
51224;SDS011;37298;42.688;23.312;2024-03-02T13:32:36;31.63;;;17.25;;
51224;SDS011;37298;42.688;23.312;2024-03-02T13:35:03;30.63;;;18.92;;
51224;SDS011;37298;42.688;23.312;2024-03-02T13:37:30;35.65;;;18.95;;
51224;SDS011;37298;42.688;23.312;2024-03-02T13:39:57;30.50;;;17.92;;
51224;SDS011;37298;42.688;23.312;2024-03-02T13:42:23;29.70;;;18.10;;
51224;SDS011;37298;42.688;23.312;2024-03-02T13:44:50;30.20;;;19.42;;
51224;SDS011;37298;42.688;23.312;2024-03-02T13:47:17;32.38;;;18.60;;
51224;SDS011;37298;42.688;23.312;2024-03-02T13:49:44;29.48;;;18.05;;
51224;SDS011;37298;42.688;23.312;2024-03-02T13:52:12;28.00;;;16.77;;
51224;SDS011;37298;42.688;23.312;2024-03-02T13:54:39;27.10;;;17.70;;
51224;SDS011;37298;42.688;23.312;2024-03-02T13:57:05;27.88;;;17.33;;
51224;SDS011;37298;42.688;23.312;2024-03-02T13:59:31;25.67;;;17.77;;
51224;SDS011;37298;42.688;23.312;2024-03-02T14:01:58;25.08;;;17.23;;
51224;SDS011;37298;42.688;23.312;2024-03-02T14:04:25;26.38;;;16.55;;
51224;SDS011;37298;42.688;23.312;2024-03-02T14:06:52;26.75;;;17.50;;
51224;SDS011;37298;42.688;23.312;2024-03-02T14:09:18;28.30;;;16.75;;
51224;SDS011;37298;42.688;23.312;2024-03-02T14:11:46;30.17;;;17.55;;